createdAt,value
2022-09-28T00:01:57.221Z,66.48
2022-09-28T00:04:25.527Z,66.49
2022-09-28T00:06:53.767Z,66.99
2022-09-28T00:09:21.906Z,66.58
2022-09-28T00:11:50.006Z,66.79
2022-09-28T00:14:18.498Z,66.05
2022-09-28T00:16:46.769Z,66.51
2022-09-28T00:19:15.045Z,67.03
2022-09-28T00:21:43.608Z,67.58
2022-09-28T00:24:16.072Z,67.81
2022-09-28T00:26:47.120Z,68.86
2022-09-28T00:29:27.406Z,69.08
2022-09-28T00:32:03.225Z,69.81
2022-09-28T00:34:35.237Z,69.93
2022-09-28T00:37:05.849Z,70.54
2022-09-28T00:39:35.928Z,71.72
2022-09-28T00:42:11.503Z,71.95
2022-09-28T00:44:52.734Z,71.60
2022-09-28T00:47:24.094Z,71.46
2022-09-28T00:50:12.821Z,71.53
2022-09-28T00:52:54.733Z,70.95
2022-09-28T00:55:43.295Z,70.97
2022-09-28T00:58:18.175Z,71.58
2022-09-28T01:00:46.358Z,72.98
2022-09-28T01:03:16.807Z,73.33
2022-09-28T01:05:47.266Z,75.52
2022-09-28T01:08:17.964Z,75.33
2022-09-28T01:10:46.097Z,75.64
2022-09-28T01:13:16.574Z,75.09
2022-09-28T01:16:13.600Z,76.47
2022-09-28T01:19:21.490Z,76.29
2022-09-28T01:22:15.493Z,75.37
2022-09-28T01:24:46.814Z,75.70
2022-09-28T01:27:30.483Z,75.63
2022-09-28T01:30:04.478Z,73.92
2022-09-28T01:32:47.795Z,73.14
2022-09-28T01:35:41.282Z,72.20
2022-09-28T01:38:44.865Z,71.70
2022-09-28T01:41:14.304Z,70.54
2022-09-28T01:43:48.142Z,70.23
2022-09-28T01:46:21.821Z,69.40
2022-09-28T01:48:55.929Z,67.63
2022-09-28T01:51:34.813Z,67.53
2022-09-28T01:54:12.482Z,67.53
2022-09-28T01:56:54.842Z,66.11
2022-09-28T01:59:31.581Z,66.82
2022-09-28T02:02:13.075Z,66.36
2022-09-28T02:04:52.244Z,65.09
2022-09-28T02:07:32.832Z,65.44
2022-09-28T02:10:07.672Z,66.05
2022-09-28T02:12:41.941Z,66.56
2022-09-28T02:15:33.814Z,66.33
2022-09-28T02:18:02.501Z,67.40
2022-09-28T02:20:33.582Z,67.33
2022-09-28T02:23:05.426Z,66.77
2022-09-28T02:26:00.923Z,66.30
2022-09-28T02:28:30.772Z,67.25
2022-09-28T02:30:59.143Z,66.60
2022-09-28T02:33:40.902Z,67.35
2022-09-28T02:36:09.912Z,68.34
2022-09-28T02:38:39.863Z,68.34
2022-09-28T02:41:20.149Z,68.30
2022-09-28T02:43:58.299Z,68.50
2022-09-28T02:47:06.012Z,68.62
2022-09-28T02:50:02.105Z,69.39
2022-09-28T02:53:11.063Z,68.96
2022-09-28T02:55:51.261Z,69.04
2022-09-28T02:58:34.041Z,69.12
2022-09-28T03:01:33.177Z,69.88
2022-09-28T03:04:42.323Z,69.66
2022-09-28T03:07:33.092Z,68.71
2022-09-28T03:10:31.335Z,68.89
2022-09-28T03:13:01.032Z,68.76
2022-09-28T03:15:32.403Z,69.19
2022-09-28T03:18:20.364Z,69.18
2022-09-28T03:20:50.415Z,68.62
2022-09-28T03:23:25.664Z,69.22
2022-09-28T03:25:55.171Z,68.98
2022-09-28T03:28:23.956Z,68.49
2022-09-28T03:30:52.226Z,68.54
2022-09-28T03:33:22.074Z,68.76
2022-09-28T03:35:50.844Z,68.78
2022-09-28T03:38:21.055Z,68.72
2022-09-28T03:41:08.183Z,68.68
2022-09-28T03:43:38.767Z,68.96
2022-09-28T03:46:07.229Z,69.26
2022-09-28T03:48:40.695Z,69.99
2022-09-28T03:51:12.603Z,69.39
2022-09-28T03:53:41.192Z,69.92
2022-09-28T03:56:15.027Z,70.20
2022-09-28T03:58:43.496Z,69.45
2022-09-28T04:01:17.522Z,69.99
2022-09-28T04:03:55.563Z,70.76
2022-09-28T04:06:24.843Z,70.47
2022-09-28T04:08:53.687Z,71.72
2022-09-28T04:11:21.692Z,71.31
2022-09-28T04:13:50.545Z,71.71
2022-09-28T04:16:19.675Z,72.26
2022-09-28T04:18:59.214Z,72.85
2022-09-28T04:21:48.444Z,71.86
2022-09-28T04:24:16.644Z,71.40
2022-09-28T04:26:44.698Z,70.34
2022-09-28T04:29:16.999Z,71.58
2022-09-28T04:31:55.800Z,71.75
2022-09-28T04:34:39.684Z,72.80
2022-09-28T04:37:11.953Z,73.58
2022-09-28T04:39:44.022Z,73.42
2022-09-28T04:42:18.199Z,73.62
2022-09-28T04:44:47.802Z,74.09
2022-09-28T04:47:15.935Z,73.75
2022-09-28T04:49:47.241Z,74.36
2022-09-28T04:52:38.103Z,74.87
2022-09-28T04:55:07.254Z,74.04
2022-09-28T04:57:36.555Z,73.22
2022-09-28T05:00:05.978Z,73.72
2022-09-28T05:02:37.033Z,73.95
2022-09-28T05:05:23.713Z,74.34
2022-09-28T05:08:18.804Z,73.10
2022-09-28T05:10:47.733Z,73.16
2022-09-28T05:13:19.174Z,69.96
2022-09-28T05:15:47.633Z,68.00
2022-09-28T05:18:15.944Z,66.79
2022-09-28T05:20:52.497Z,65.84
2022-09-28T05:23:21.104Z,65.60
2022-09-28T05:25:49.387Z,64.67
2022-09-28T05:28:30.333Z,63.42
2022-09-28T05:31:21.331Z,63.14
2022-09-28T05:34:05.467Z,62.02
2022-09-28T05:36:33.624Z,62.79
2022-09-28T05:39:03.964Z,62.25
2022-09-28T05:41:33.143Z,62.38
2022-09-28T05:44:02.097Z,62.51
2022-09-28T05:46:31.657Z,62.36
2022-09-28T05:49:02.083Z,62.25
2022-09-28T05:51:30.103Z,62.48
2022-09-28T05:54:04.611Z,64.42
2022-09-28T05:56:35.083Z,62.44
2022-09-28T05:59:06.452Z,61.57
2022-09-28T06:01:34.713Z,60.14
2022-09-28T06:04:04.247Z,59.84
2022-09-28T06:06:34.737Z,59.87
2022-09-28T06:09:28.310Z,59.55
2022-09-28T06:12:08.160Z,58.76
2022-09-28T06:14:42.750Z,58.83
2022-09-28T06:17:12.756Z,58.95
2022-09-28T06:19:40.907Z,57.82
2022-09-28T06:22:25.360Z,57.33
2022-09-28T06:25:01.317Z,57.48
2022-09-28T06:27:30.193Z,57.68
2022-09-28T06:30:00.821Z,57.49
2022-09-28T06:32:30.048Z,57.21
2022-09-28T06:34:59.069Z,56.30
2022-09-28T06:37:29.257Z,56.26
2022-09-28T06:39:58.248Z,55.72
2022-09-28T06:42:26.788Z,55.89
2022-09-28T06:45:25.695Z,55.01
2022-09-28T06:48:15.367Z,55.17
2022-09-28T06:50:44.128Z,54.62
2022-09-28T06:53:24.547Z,54.56
2022-09-28T06:56:21.417Z,55.06
2022-09-28T06:58:49.777Z,54.66
2022-09-28T07:01:18.523Z,54.58
2022-09-28T07:04:07.086Z,54.52
2022-09-28T07:06:54.678Z,54.35
2022-09-28T07:09:50.246Z,54.33
2022-09-28T07:12:44.710Z,53.85
2022-09-28T07:15:32.791Z,53.31
2022-09-28T07:18:23.587Z,53.43
2022-09-28T07:20:54.699Z,53.04
2022-09-28T07:23:23.707Z,52.64
2022-09-28T07:26:19.722Z,52.83
2022-09-28T07:29:14.873Z,52.64
2022-09-28T07:32:03.627Z,52.28
2022-09-28T07:34:31.790Z,51.47
2022-09-28T07:37:07.492Z,50.96
2022-09-28T07:39:55.597Z,50.60
2022-09-28T07:42:25.187Z,50.33
2022-09-28T07:44:53.307Z,50.44
2022-09-28T07:47:30.889Z,50.33
2022-09-28T07:50:34.970Z,50.35
2022-09-28T07:53:28.978Z,49.86
2022-09-28T07:56:24.073Z,48.97
2022-09-28T07:59:04.540Z,48.79
2022-09-28T08:01:51.599Z,48.55
2022-09-28T08:04:21.150Z,48.30
2022-09-28T08:06:49.238Z,48.15
2022-09-28T08:09:17.607Z,47.68
2022-09-28T08:12:05.668Z,48.08
2022-09-28T08:14:53.407Z,48.20
2022-09-28T08:17:48.651Z,48.30
2022-09-28T08:20:38.107Z,47.54
2022-09-28T08:23:09.100Z,47.09
2022-09-28T08:25:39.088Z,46.59
2022-09-28T08:28:09.750Z,45.78
2022-09-28T08:30:46.649Z,45.82
2022-09-28T08:33:33.961Z,45.38
2022-09-28T08:36:21.399Z,45.81
2022-09-28T08:39:08.512Z,45.84
2022-09-28T08:42:41.249Z,44.88
2022-09-28T08:45:27.890Z,44.98
2022-09-28T08:48:49.022Z,44.69
2022-09-28T08:52:12.027Z,43.73
2022-09-28T08:55:15.648Z,42.14
2022-09-28T08:57:58.788Z,42.43
2022-09-28T09:00:43.356Z,42.70
2022-09-28T09:03:19.286Z,42.73
2022-09-28T09:06:18.448Z,42.11
2022-09-28T09:09:17.827Z,41.76
2022-09-28T09:12:24.692Z,41.59
2022-09-28T09:15:34.177Z,41.30
2022-09-28T09:18:20.033Z,41.26
2022-09-28T09:21:16.169Z,40.65
2022-09-28T09:23:57.296Z,39.08
2022-09-28T09:26:41.248Z,38.65
2022-09-28T09:29:53.009Z,39.67
2022-09-28T09:32:47.858Z,39.43
2022-09-28T09:35:34.292Z,39.75
2022-09-28T09:39:00.360Z,39.52
2022-09-28T09:42:16.457Z,39.21
2022-09-28T09:45:28.938Z,39.51
2022-09-28T09:48:22.255Z,39.06
2022-09-28T09:51:00.065Z,39.66
2022-09-28T09:53:39.027Z,41.06
2022-09-28T09:56:53.058Z,39.40
2022-09-28T09:59:42.477Z,40.89
2022-09-28T10:02:30.878Z,39.71
2022-09-28T10:05:24.738Z,39.32
2022-09-28T10:08:08.557Z,38.53
2022-09-28T10:10:44.760Z,38.46
2022-09-28T10:13:15.086Z,38.50
2022-09-28T10:15:47.987Z,38.11
2022-09-28T10:18:25.002Z,38.60
2022-09-28T10:21:16.561Z,38.38
2022-09-28T10:24:04.737Z,38.46
2022-09-28T10:26:42.066Z,38.16
2022-09-28T10:29:22.463Z,37.76
2022-09-28T10:31:52.721Z,37.97
2022-09-28T10:34:28.956Z,36.72
2022-09-28T10:37:10.067Z,35.43
2022-09-28T10:40:01.877Z,35.28
2022-09-28T10:42:36.434Z,34.72
2022-09-28T10:45:20.737Z,34.56
2022-09-28T10:47:49.864Z,34.41
2022-09-28T10:50:25.927Z,33.99
2022-09-28T10:53:19.920Z,33.98
2022-09-28T10:56:20.230Z,33.71
2022-09-28T10:58:52.366Z,35.15
2022-09-28T11:01:33.988Z,34.65
2022-09-28T11:04:07.017Z,34.23
2022-09-28T11:06:39.189Z,33.74
2022-09-28T11:09:41.585Z,34.12
2022-09-28T11:12:16.277Z,36.24
2022-09-28T11:14:44.938Z,35.88
2022-09-28T11:17:40.737Z,35.49
2022-09-28T11:20:28.204Z,35.49
2022-09-28T11:23:19.268Z,34.20
2022-09-28T11:26:10.609Z,36.99
2022-09-28T11:28:43.427Z,37.47
2022-09-28T11:31:29.236Z,37.20
2022-09-28T11:34:16.788Z,35.69
2022-09-28T11:37:09.647Z,36.08
2022-09-28T11:40:06.906Z,35.30
2022-09-28T11:42:58.771Z,34.12
2022-09-28T11:45:41.586Z,33.82
2022-09-28T11:48:15.960Z,33.51
2022-09-28T11:50:54.588Z,33.69
2022-09-28T11:53:40.617Z,34.75
2022-09-28T11:56:50.857Z,33.95
2022-09-28T11:59:32.606Z,33.58
2022-09-28T12:02:18.396Z,33.94
2022-09-28T12:05:03.256Z,33.26
2022-09-28T12:07:38.836Z,33.38
2022-09-28T12:10:28.503Z,32.46
2022-09-28T12:13:02.657Z,31.62
2022-09-28T12:16:20.018Z,31.71
2022-09-28T12:18:50.835Z,30.78
2022-09-28T12:21:25.690Z,30.95
2022-09-28T12:23:59.530Z,30.14
2022-09-28T12:26:47.821Z,30.31
2022-09-28T12:29:23.310Z,30.87
2022-09-28T12:31:57.644Z,30.26
2022-09-28T12:34:26.178Z,33.24
2022-09-28T12:37:09.496Z,33.10
2022-09-28T12:40:16.104Z,33.15
2022-09-28T12:42:53.369Z,33.41
2022-09-28T12:45:43.045Z,34.62
2022-09-28T12:48:21.597Z,35.43
2022-09-28T12:50:56.965Z,36.43
2022-09-28T12:53:47.498Z,35.65
2022-09-28T12:56:34.856Z,35.08
2022-09-28T12:59:12.151Z,35.13
2022-09-28T13:01:49.492Z,35.75
2022-09-28T13:05:03.006Z,35.28
2022-09-28T13:08:09.447Z,35.20
2022-09-28T13:11:05.462Z,35.88
2022-09-28T13:13:45.627Z,35.92
2022-09-28T13:16:48.536Z,36.14
2022-09-28T13:19:40.831Z,36.99
2022-09-28T13:22:24.219Z,37.33
2022-09-28T13:24:55.266Z,36.76
2022-09-28T13:27:32.688Z,36.53
2022-09-28T13:30:03.574Z,37.10
2022-09-28T13:32:33.832Z,37.24
2022-09-28T13:35:02.743Z,36.68
2022-09-28T13:37:31.106Z,37.38
2022-09-28T13:40:00.252Z,36.46
2022-09-28T13:42:46.603Z,37.42
2022-09-28T13:45:20.807Z,36.86
2022-09-28T13:48:05.947Z,37.27
2022-09-28T13:50:52.286Z,36.78
2022-09-28T13:53:26.266Z,36.33
2022-09-28T13:56:27.547Z,36.92
2022-09-28T13:59:14.195Z,36.72
2022-09-28T14:01:56.067Z,36.79
2022-09-28T14:04:56.456Z,36.93
2022-09-28T14:07:44.428Z,36.65
2022-09-28T14:10:44.700Z,36.58
2022-09-28T14:13:13.106Z,36.72
2022-09-28T14:15:45.399Z,36.13
2022-09-28T14:18:25.666Z,35.99
2022-09-28T14:21:46.188Z,35.75
2022-09-28T14:24:23.417Z,35.23
2022-09-28T14:27:11.981Z,35.68
2022-09-28T14:29:41.577Z,35.92
2022-09-28T14:32:09.768Z,35.89
2022-09-28T14:34:45.068Z,36.30
2022-09-28T14:37:51.657Z,36.57
2022-09-28T14:40:40.314Z,37.31
2022-09-28T14:43:38.037Z,37.67
2022-09-28T14:46:12.097Z,38.85
2022-09-28T14:48:49.379Z,37.89
2022-09-28T14:51:26.927Z,38.30
2022-09-28T14:54:03.180Z,38.47
2022-09-28T14:56:54.567Z,38.48
2022-09-28T14:59:36.477Z,38.54
2022-09-28T15:02:23.667Z,39.27
2022-09-28T15:05:14.628Z,38.95
2022-09-28T15:07:47.981Z,38.94
2022-09-28T15:10:27.525Z,39.33
2022-09-28T15:12:57.448Z,39.62
2022-09-28T15:15:55.112Z,39.70
2022-09-28T15:18:48.348Z,39.77
2022-09-28T15:21:17.278Z,39.88
2022-09-28T15:23:45.917Z,39.98
2022-09-28T15:26:27.837Z,40.07
2022-09-28T15:28:56.408Z,40.10
2022-09-28T15:31:30.597Z,40.20
2022-09-28T15:34:17.226Z,40.27
2022-09-28T15:36:48.837Z,40.54
2022-09-28T15:39:34.570Z,40.03
2022-09-28T15:42:05.300Z,38.85
2022-09-28T15:44:38.427Z,38.33
2022-09-28T15:47:14.377Z,38.47
2022-09-28T15:50:03.613Z,38.97
2022-09-28T15:52:37.846Z,39.90
2022-09-28T15:55:28.985Z,40.64
2022-09-28T15:58:23.066Z,40.09
2022-09-28T16:01:13.629Z,40.07
2022-09-28T16:03:41.906Z,40.38
2022-09-28T16:06:11.146Z,40.06
2022-09-28T16:08:45.216Z,39.54
2022-09-28T16:11:24.507Z,39.67
2022-09-28T16:14:09.056Z,40.43
2022-09-28T16:16:58.476Z,40.28
2022-09-28T16:19:36.517Z,40.67
2022-09-28T16:22:13.186Z,40.97
2022-09-28T16:24:41.406Z,41.75
2022-09-28T16:27:23.840Z,42.02
2022-09-28T16:30:15.986Z,43.09
2022-09-28T16:32:54.659Z,43.25
2022-09-28T16:35:25.941Z,43.27
2022-09-28T16:38:03.969Z,43.75
2022-09-28T16:40:33.863Z,43.66
2022-09-28T16:43:06.341Z,43.81
2022-09-28T16:45:35.529Z,44.19
2022-09-28T16:48:05.606Z,44.11
2022-09-28T16:50:33.778Z,44.05
2022-09-28T16:53:31.296Z,44.43
2022-09-28T16:56:01.066Z,44.65
2022-09-28T16:58:31.834Z,45.04
2022-09-28T17:01:01.786Z,45.40
2022-09-28T17:03:30.047Z,45.56
2022-09-28T17:05:58.096Z,45.59
2022-09-28T17:08:26.416Z,45.29
2022-09-28T17:13:47.457Z,46.17
2022-09-28T17:16:49.832Z,46.03
2022-09-28T17:19:23.655Z,45.92
2022-09-28T17:21:53.308Z,46.32
2022-09-28T17:24:21.791Z,46.40
2022-09-28T17:26:52.497Z,46.64
2022-09-28T17:29:20.975Z,47.16
2022-09-28T17:31:49.296Z,47.06
2022-09-28T17:34:17.593Z,46.83
2022-09-28T17:36:46.278Z,46.98
2022-09-28T17:39:17.837Z,47.47
2022-09-28T17:41:47.908Z,47.71
2022-09-28T17:44:16.699Z,47.86
2022-09-28T17:46:49.080Z,48.02
2022-09-28T17:49:19.158Z,47.57
2022-09-28T17:51:47.247Z,47.59
2022-09-28T17:54:17.100Z,47.97
2022-09-28T17:56:46.383Z,48.01
2022-09-28T17:59:18.904Z,48.19
2022-09-28T18:01:48.653Z,48.35
2022-09-28T18:04:33.730Z,48.30
2022-09-28T18:07:06.384Z,48.44
2022-09-28T18:09:34.643Z,48.70
2022-09-28T18:12:05.174Z,48.91
2022-09-28T18:14:36.201Z,48.81
2022-09-28T18:17:04.580Z,48.84
2022-09-28T18:19:32.731Z,48.76
2022-09-28T18:22:01.888Z,49.38
2022-09-28T18:24:30.055Z,48.90
2022-09-28T18:26:58.190Z,49.07
2022-09-28T18:29:29.911Z,49.31
2022-09-28T18:32:00.296Z,49.27
2022-09-28T18:34:28.562Z,49.49
2022-09-28T18:36:56.572Z,49.46
2022-09-28T18:39:24.511Z,49.93
2022-09-28T18:41:52.755Z,49.34
2022-09-28T18:44:20.747Z,49.63
2022-09-28T18:46:49.335Z,49.81
2022-09-28T18:49:17.915Z,49.68
2022-09-28T18:51:46.061Z,50.46
2022-09-28T18:54:14.372Z,50.29
2022-09-28T18:56:42.926Z,50.13
2022-09-28T18:59:12.286Z,50.30
2022-09-28T19:01:42.203Z,50.84
2022-09-28T19:04:11.725Z,51.09
2022-09-28T19:06:41.609Z,50.58
2022-09-28T19:09:10.071Z,51.20
2022-09-28T19:11:38.480Z,51.44
2022-09-28T19:14:06.630Z,51.83
2022-09-28T19:16:34.658Z,52.14
2022-09-28T19:19:03.486Z,51.75
2022-09-28T19:21:31.947Z,52.29
2022-09-28T19:24:04.517Z,53.13
2022-09-28T19:26:34.087Z,52.96
2022-09-28T19:29:03.281Z,53.07
2022-09-28T19:31:31.940Z,53.34
2022-09-28T19:34:00.462Z,52.52
2022-09-28T19:36:29.551Z,53.00
2022-09-28T19:39:03.778Z,53.54
2022-09-28T19:41:51.566Z,53.93
2022-09-28T19:44:28.562Z,53.79
2022-09-28T19:47:10.518Z,54.41
2022-09-28T19:49:41.443Z,54.23
2022-09-28T19:52:16.768Z,55.17
2022-09-28T19:54:56.936Z,55.15
2022-09-28T19:57:29.635Z,57.18
2022-09-28T20:00:02.048Z,56.02
2022-09-28T20:02:34.975Z,55.79
2022-09-28T20:05:03.801Z,55.06
2022-09-28T20:07:33.671Z,55.78
2022-09-28T20:10:02.483Z,55.71
2022-09-28T20:12:30.809Z,57.14
2022-09-28T20:14:59.629Z,57.16
2022-09-28T20:17:28.010Z,56.91
2022-09-28T20:19:56.171Z,56.89
2022-09-28T20:22:24.218Z,57.19
2022-09-28T20:24:52.570Z,57.08
2022-09-28T20:27:25.475Z,56.78
2022-09-28T20:29:55.498Z,56.92
2022-09-28T20:32:23.803Z,57.05
2022-09-28T20:34:51.979Z,58.74
2022-09-28T20:37:20.258Z,59.25
2022-09-28T20:39:49.378Z,59.69
2022-09-28T20:42:17.498Z,59.09
2022-09-28T20:44:45.971Z,59.03
2022-09-28T20:47:14.086Z,58.72
2022-09-28T20:49:42.237Z,58.71
2022-09-28T20:52:11.388Z,58.61
2022-09-28T20:54:39.458Z,58.95
2022-09-28T20:57:17.782Z,59.30
2022-09-28T20:59:52.301Z,58.86
2022-09-28T21:02:23.053Z,59.61
2022-09-28T21:04:51.797Z,59.09
2022-09-28T21:07:20.281Z,59.33
2022-09-28T21:09:48.732Z,59.08
2022-09-28T21:12:17.420Z,60.06
2022-09-28T21:14:45.519Z,60.14
2022-09-28T21:17:13.813Z,59.99
2022-09-28T21:19:42.196Z,60.70
2022-09-28T21:22:10.423Z,60.85
2022-09-28T21:24:39.019Z,61.00
2022-09-28T21:27:07.364Z,60.46
2022-09-28T21:29:35.419Z,60.87
2022-09-28T21:32:03.648Z,60.47
2022-09-28T21:34:33.062Z,60.50
2022-09-28T21:37:01.170Z,60.24
2022-09-28T21:39:29.311Z,59.60
2022-09-28T21:41:57.628Z,59.87
2022-09-28T21:44:25.739Z,60.48
2022-09-28T21:46:53.910Z,60.17
2022-09-28T21:49:22.789Z,60.75
2022-09-28T21:51:52.855Z,60.57
2022-09-28T21:54:21.629Z,60.15
2022-09-28T21:56:49.978Z,60.49
2022-09-28T21:59:18.169Z,61.52
2022-09-28T22:01:46.516Z,61.56
2022-09-28T22:04:15.119Z,61.17
2022-09-28T22:06:43.502Z,61.76
2022-09-28T22:09:11.761Z,61.93
2022-09-28T22:11:40.259Z,61.24
2022-09-28T22:14:10.782Z,61.03
2022-09-28T22:16:39.008Z,60.70
2022-09-28T22:19:07.527Z,61.10
2022-09-28T22:21:36.188Z,61.38
2022-09-28T22:24:07.373Z,62.48
2022-09-28T22:26:37.757Z,63.10
2022-09-28T22:29:09.081Z,64.22
2022-09-28T22:31:40.574Z,64.27
2022-09-28T22:34:10.122Z,64.41
2022-09-28T22:36:38.539Z,64.55
2022-09-28T22:39:06.687Z,63.69
2022-09-28T22:41:36.001Z,64.54
2022-09-28T22:44:04.703Z,65.11
2022-09-28T22:46:33.558Z,66.07
2022-09-28T22:49:02.398Z,66.12
2022-09-28T22:51:31.946Z,66.19
2022-09-28T22:54:00.215Z,65.74
2022-09-28T22:56:29.327Z,65.39
2022-09-28T22:58:58.238Z,64.55
2022-09-28T23:01:29.072Z,63.58
2022-09-28T23:03:58.481Z,63.24
2022-09-28T23:06:31.321Z,63.25
2022-09-28T23:08:59.788Z,63.79
2022-09-28T23:11:29.919Z,62.50
2022-09-28T23:13:59.541Z,63.02
2022-09-28T23:16:28.365Z,62.75
2022-09-28T23:18:56.759Z,61.87
2022-09-28T23:21:26.983Z,62.32
2022-09-28T23:24:01.775Z,62.84
2022-09-28T23:26:33.378Z,63.11
2022-09-28T23:29:01.329Z,63.88
2022-09-28T23:31:31.557Z,64.76
2022-09-28T23:34:06.829Z,65.11
2022-09-28T23:36:35.310Z,65.20
2022-09-28T23:39:04.349Z,64.79
2022-09-28T23:41:32.279Z,64.77
2022-09-28T23:44:00.329Z,64.53
2022-09-28T23:46:28.612Z,64.40
2022-09-28T23:48:56.805Z,64.36
2022-09-28T23:51:24.821Z,64.42
2022-09-28T23:53:53.311Z,64.63
2022-09-28T23:56:21.834Z,63.85
2022-09-28T23:58:49.981Z,63.12
